createdAt,value
2023-03-15T00:00:35.494Z,85.57
2023-03-15T00:03:01.919Z,85.90
2023-03-15T00:05:28.299Z,85.62
2023-03-15T00:07:54.687Z,85.32
2023-03-15T00:10:21.079Z,83.72
2023-03-15T00:12:47.476Z,82.49
2023-03-15T00:15:13.884Z,82.93
2023-03-15T00:17:40.283Z,82.97
2023-03-15T00:20:06.722Z,82.50
2023-03-15T00:22:33.147Z,83.48
2023-03-15T00:24:59.543Z,83.26
2023-03-15T00:27:25.957Z,84.48
2023-03-15T00:29:52.383Z,83.76
2023-03-15T00:32:18.790Z,83.33
2023-03-15T00:34:45.201Z,84.48
2023-03-15T00:37:11.577Z,82.77
2023-03-15T00:39:38.065Z,82.87
2023-03-15T00:42:04.468Z,85.35
2023-03-15T00:44:30.876Z,82.38
2023-03-15T00:46:57.329Z,82.12
2023-03-15T00:49:23.817Z,83.65
2023-03-15T00:51:50.260Z,78.61
2023-03-15T00:54:16.657Z,80.10
2023-03-15T00:56:43.064Z,81.09
2023-03-15T00:59:09.502Z,82.19
2023-03-15T01:01:35.957Z,82.08
2023-03-15T01:04:02.346Z,79.21
2023-03-15T01:06:28.745Z,81.92
2023-03-15T01:08:55.159Z,82.03
2023-03-15T01:11:21.542Z,77.08
2023-03-15T01:13:47.921Z,78.59
2023-03-15T01:16:14.417Z,82.90
2023-03-15T01:18:40.854Z,79.17
2023-03-15T01:21:07.275Z,82.69
2023-03-15T01:23:33.722Z,77.75
2023-03-15T01:26:00.170Z,75.46
2023-03-15T01:28:26.549Z,79.25
2023-03-15T01:30:52.936Z,79.48
2023-03-15T01:33:19.319Z,77.03
2023-03-15T01:35:45.714Z,76.48
2023-03-15T01:38:12.118Z,77.83
2023-03-15T01:40:38.504Z,76.72
2023-03-15T01:43:04.884Z,78.65
2023-03-15T01:45:31.290Z,79.53
2023-03-15T01:47:57.739Z,77.66
2023-03-15T01:50:24.141Z,77.70
2023-03-15T01:52:50.576Z,77.33
2023-03-15T01:55:16.988Z,76.35
2023-03-15T01:57:43.423Z,77.51
2023-03-15T02:00:09.837Z,78.96
2023-03-15T02:02:36.278Z,75.18
2023-03-15T02:05:02.745Z,76.03
2023-03-15T02:07:29.114Z,78.58
2023-03-15T02:09:55.501Z,74.62
2023-03-15T02:12:21.906Z,73.74
2023-03-15T02:14:48.285Z,78.41
2023-03-15T02:17:14.729Z,76.88
2023-03-15T02:19:41.140Z,77.47
2023-03-15T02:22:07.529Z,73.49
2023-03-15T02:24:33.914Z,76.41
2023-03-15T02:27:00.312Z,76.46
2023-03-15T02:29:26.733Z,76.45
2023-03-15T02:31:53.169Z,78.24
2023-03-15T02:34:19.584Z,74.34
2023-03-15T02:36:45.970Z,74.54
2023-03-15T02:39:12.373Z,76.11
2023-03-15T02:41:38.962Z,78.20
2023-03-15T02:44:05.448Z,79.46
2023-03-15T02:46:31.830Z,81.46
2023-03-15T02:48:58.218Z,76.62
2023-03-15T02:51:24.632Z,77.96
2023-03-15T02:53:51.057Z,78.34
2023-03-15T02:56:17.454Z,77.04
2023-03-15T02:58:43.875Z,79.65
2023-03-15T03:01:10.320Z,80.16
2023-03-15T03:03:36.730Z,80.23
2023-03-15T03:06:03.140Z,81.32
2023-03-15T03:08:29.542Z,78.97
2023-03-15T03:10:55.923Z,79.77
2023-03-15T03:13:22.313Z,81.67
2023-03-15T03:15:48.739Z,79.89
2023-03-15T03:18:15.154Z,79.68
2023-03-15T03:20:41.539Z,76.46
2023-03-15T03:23:07.940Z,77.35
2023-03-15T03:25:34.319Z,76.89
2023-03-15T03:28:00.753Z,73.81
2023-03-15T03:30:27.168Z,79.00
2023-03-15T03:32:53.626Z,78.60
2023-03-15T03:35:20.041Z,77.99
2023-03-15T03:37:46.448Z,72.09
2023-03-15T03:40:12.845Z,70.96
2023-03-15T03:42:39.255Z,72.09
2023-03-15T03:45:05.862Z,73.26
2023-03-15T03:47:32.245Z,71.53
2023-03-15T03:49:58.609Z,73.82
2023-03-15T03:52:25.014Z,74.45
2023-03-15T03:54:51.399Z,75.63
2023-03-15T03:57:17.808Z,73.87
2023-03-15T03:59:44.193Z,73.46
2023-03-15T04:02:10.672Z,74.85
2023-03-15T04:04:37.170Z,75.13
2023-03-15T04:07:03.612Z,75.25
2023-03-15T04:09:30.062Z,75.07
2023-03-15T04:11:56.455Z,74.58
2023-03-15T04:14:22.862Z,74.71
2023-03-15T04:16:49.242Z,75.18
2023-03-15T04:19:15.639Z,74.91
2023-03-15T04:21:42.050Z,74.48
2023-03-15T04:24:08.431Z,74.20
2023-03-15T04:26:34.822Z,75.08
2023-03-15T04:29:01.198Z,73.37
2023-03-15T04:31:27.696Z,74.09
2023-03-15T04:33:54.140Z,74.11
2023-03-15T04:36:20.548Z,74.43
2023-03-15T04:38:46.968Z,73.85
2023-03-15T04:41:13.369Z,74.74
2023-03-15T04:43:40.988Z,74.21
2023-03-15T04:46:07.472Z,73.89
2023-03-15T04:48:33.867Z,71.97
2023-03-15T04:51:00.276Z,72.28
2023-03-15T04:53:26.645Z,73.44
2023-03-15T04:55:53.019Z,73.02
2023-03-15T04:58:19.430Z,73.05
2023-03-15T05:00:45.916Z,72.14
2023-03-15T05:03:12.343Z,71.57
2023-03-15T05:05:38.756Z,71.93
2023-03-15T05:08:05.149Z,70.46
2023-03-15T05:10:31.545Z,72.57
2023-03-15T05:12:57.929Z,71.34
2023-03-15T05:15:24.433Z,71.18
2023-03-15T05:17:50.820Z,72.04
2023-03-15T05:20:17.246Z,72.24
2023-03-15T05:22:43.668Z,72.44
2023-03-15T05:25:10.106Z,73.37
2023-03-15T05:27:36.498Z,73.06
2023-03-15T05:30:02.896Z,73.74
2023-03-15T05:32:29.326Z,75.54
2023-03-15T05:34:55.723Z,75.71
2023-03-15T05:37:22.135Z,74.75
2023-03-15T05:39:48.549Z,75.07
2023-03-15T05:42:14.938Z,74.84
2023-03-15T05:44:41.329Z,75.89
2023-03-15T05:47:07.714Z,75.73
2023-03-15T05:49:34.098Z,75.03
2023-03-15T05:52:00.489Z,73.10
2023-03-15T05:54:26.893Z,73.70
2023-03-15T05:56:53.270Z,73.89
2023-03-15T05:59:19.678Z,73.11
2023-03-15T06:01:46.108Z,74.18
2023-03-15T06:04:12.567Z,74.22
2023-03-15T06:06:38.991Z,72.89
2023-03-15T06:09:05.444Z,74.07
2023-03-15T06:11:31.847Z,73.79
2023-03-15T06:13:58.245Z,73.05
2023-03-15T06:16:24.638Z,73.02
2023-03-15T06:18:51.041Z,73.24
2023-03-15T06:21:17.439Z,74.09
2023-03-15T06:23:43.856Z,72.31
2023-03-15T06:26:10.253Z,74.26
2023-03-15T06:28:36.635Z,74.55
2023-03-15T06:31:03.119Z,73.12
2023-03-15T06:33:29.602Z,74.65
2023-03-15T06:35:56.057Z,73.64
2023-03-15T06:38:22.528Z,73.65
2023-03-15T06:40:49.082Z,73.63
2023-03-15T06:43:15.595Z,74.21
2023-03-15T06:45:42.104Z,72.79
2023-03-15T06:48:08.634Z,73.82
2023-03-15T06:50:46.402Z,71.31
2023-03-15T06:53:13.763Z,71.38
2023-03-15T06:55:40.185Z,70.13
2023-03-15T06:58:06.587Z,72.55
2023-03-15T07:00:32.973Z,73.32
2023-03-15T07:02:59.462Z,72.63
2023-03-15T07:05:25.934Z,72.09
2023-03-15T07:07:52.408Z,72.61
2023-03-15T07:10:18.802Z,72.28
2023-03-15T07:12:45.233Z,72.03
2023-03-15T07:15:11.611Z,70.00
2023-03-15T07:17:38.002Z,73.85
2023-03-15T07:20:04.441Z,70.83
2023-03-15T07:22:30.832Z,73.53
2023-03-15T07:24:57.211Z,70.53
2023-03-15T07:27:23.634Z,72.73
2023-03-15T07:29:50.045Z,70.51
2023-03-15T07:32:16.524Z,73.88
2023-03-15T07:34:43.020Z,72.47
2023-03-15T07:37:09.436Z,75.54
2023-03-15T07:39:35.847Z,74.67
2023-03-15T07:42:02.219Z,77.54
2023-03-15T07:44:28.583Z,73.53
2023-03-15T07:46:55.048Z,76.21
2023-03-15T07:49:21.481Z,74.56
2023-03-15T07:51:47.873Z,73.05
2023-03-15T07:54:14.291Z,76.21
2023-03-15T07:56:40.694Z,75.25
2023-03-15T07:59:07.077Z,72.56
2023-03-15T08:01:33.487Z,72.76
2023-03-15T08:03:59.927Z,73.95
2023-03-15T08:06:26.328Z,72.12
2023-03-15T08:08:52.739Z,70.44
2023-03-15T08:11:19.124Z,71.40
2023-03-15T08:13:45.534Z,71.22
2023-03-15T08:16:12.008Z,71.70
2023-03-15T08:18:38.409Z,71.51
2023-03-15T08:21:04.792Z,69.91
2023-03-15T08:23:31.185Z,71.43
2023-03-15T08:25:57.560Z,70.87
2023-03-15T08:28:23.967Z,71.23
2023-03-15T08:30:50.383Z,71.44
2023-03-15T08:33:16.773Z,73.32
2023-03-15T08:35:43.172Z,74.90
2023-03-15T08:38:09.580Z,70.85
2023-03-15T08:40:36.298Z,70.53
2023-03-15T08:43:03.412Z,71.88
2023-03-15T08:45:30.497Z,70.93
2023-03-15T08:47:57.036Z,70.96
2023-03-15T08:50:23.406Z,72.68
2023-03-15T08:52:49.784Z,69.92
2023-03-15T08:55:16.206Z,70.61
2023-03-15T08:57:42.609Z,71.90
2023-03-15T09:00:09.060Z,71.03
2023-03-15T09:02:35.563Z,71.45
2023-03-15T09:05:02.011Z,66.05
2023-03-15T09:07:28.389Z,69.87
2023-03-15T09:09:54.833Z,67.92
2023-03-15T09:12:21.251Z,68.59
2023-03-15T09:14:47.641Z,67.29
2023-03-15T09:17:14.089Z,67.34
2023-03-15T09:19:40.501Z,66.60
2023-03-15T09:22:16.402Z,68.44
2023-03-15T09:24:43.488Z,68.80
2023-03-15T09:27:09.913Z,65.00
2023-03-15T09:29:36.317Z,65.46
2023-03-15T09:32:02.744Z,65.00
2023-03-15T09:34:33.317Z,67.01
2023-03-15T09:37:06.141Z,64.15
2023-03-15T09:39:32.530Z,66.74
2023-03-15T09:41:58.965Z,64.47
2023-03-15T09:44:25.381Z,65.17
2023-03-15T09:46:51.838Z,64.90
2023-03-15T09:49:18.286Z,61.50
2023-03-15T09:51:44.687Z,61.08
2023-03-15T09:54:11.063Z,60.79
2023-03-15T09:56:37.471Z,63.80
2023-03-15T09:59:03.956Z,63.73
2023-03-15T10:01:30.510Z,63.72
2023-03-15T10:03:56.978Z,64.39
2023-03-15T10:06:23.384Z,58.52
2023-03-15T10:08:49.853Z,58.85
2023-03-15T10:11:16.246Z,57.48
2023-03-15T10:13:42.673Z,59.71
2023-03-15T10:16:09.124Z,58.48
2023-03-15T10:18:35.526Z,59.19
2023-03-15T10:21:01.967Z,59.92
2023-03-15T10:23:28.365Z,61.94
2023-03-15T10:25:54.769Z,58.83
2023-03-15T10:28:21.173Z,56.12
2023-03-15T10:30:47.581Z,57.44
2023-03-15T10:33:13.972Z,55.90
2023-03-15T10:35:40.424Z,55.33
2023-03-15T10:38:06.847Z,57.56
2023-03-15T10:40:33.285Z,57.88
2023-03-15T10:42:59.674Z,57.98
2023-03-15T10:45:26.050Z,57.16
2023-03-15T10:48:00.232Z,58.49
2023-03-15T10:50:27.376Z,55.56
2023-03-15T10:52:53.773Z,54.85
2023-03-15T10:55:20.200Z,56.10
2023-03-15T10:57:47.000Z,56.05
2023-03-15T11:00:13.397Z,55.47
2023-03-15T11:02:39.793Z,58.32
2023-03-15T11:05:06.193Z,58.04
2023-03-15T11:07:32.579Z,55.01
2023-03-15T11:09:58.988Z,55.86
2023-03-15T11:12:25.407Z,59.52
2023-03-15T11:14:51.816Z,56.16
2023-03-15T11:17:18.200Z,58.47
2023-03-15T11:19:44.578Z,55.31
2023-03-15T11:22:10.972Z,56.00
2023-03-15T11:24:37.371Z,52.35
2023-03-15T11:27:03.763Z,55.59
2023-03-15T11:29:30.159Z,54.49
2023-03-15T11:31:56.648Z,56.29
2023-03-15T11:34:23.097Z,57.74
2023-03-15T11:37:01.879Z,56.63
2023-03-15T11:39:34.041Z,59.15
2023-03-15T11:42:00.506Z,59.40
2023-03-15T11:44:26.897Z,58.00
2023-03-15T11:46:53.300Z,57.56
2023-03-15T11:49:19.840Z,56.49
2023-03-15T11:51:46.330Z,55.15
2023-03-15T11:54:12.749Z,52.68
2023-03-15T11:56:39.206Z,54.45
2023-03-15T11:59:05.606Z,56.75
2023-03-15T12:01:31.982Z,56.28
2023-03-15T12:03:58.367Z,51.96
2023-03-15T12:06:24.786Z,53.95
2023-03-15T12:08:51.193Z,55.80
2023-03-15T12:11:17.603Z,55.93
2023-03-15T12:13:44.003Z,54.23
2023-03-15T12:16:10.471Z,55.39
2023-03-15T12:18:36.881Z,56.83
2023-03-15T12:21:03.300Z,55.71
2023-03-15T12:23:29.712Z,54.34
2023-03-15T12:25:56.105Z,55.24
2023-03-15T12:28:22.568Z,56.68
2023-03-15T12:30:49.007Z,52.40
2023-03-15T12:33:15.410Z,52.59
2023-03-15T12:35:41.846Z,52.93
2023-03-15T12:38:08.271Z,53.31
2023-03-15T12:40:34.695Z,52.95
2023-03-15T12:43:01.092Z,52.93
2023-03-15T12:45:27.483Z,51.47
2023-03-15T12:47:53.902Z,52.41
2023-03-15T12:50:20.315Z,49.79
2023-03-15T12:52:46.699Z,48.49
2023-03-15T12:55:13.083Z,45.56
2023-03-15T12:57:39.467Z,48.59
2023-03-15T13:00:05.880Z,48.05
2023-03-15T13:02:42.838Z,45.86
2023-03-15T13:05:09.996Z,42.25
2023-03-15T13:07:50.287Z,40.51
2023-03-15T13:10:17.283Z,38.68
2023-03-15T13:12:43.682Z,38.19
2023-03-15T13:15:10.102Z,38.94
2023-03-15T13:17:36.501Z,40.14
2023-03-15T13:20:02.905Z,38.81
2023-03-15T13:22:29.275Z,38.84
2023-03-15T13:24:55.666Z,39.69
2023-03-15T13:27:22.069Z,39.88
2023-03-15T13:29:48.443Z,37.57
2023-03-15T13:32:14.928Z,36.65
2023-03-15T13:34:41.305Z,39.24
2023-03-15T13:37:07.723Z,35.08
2023-03-15T13:39:34.109Z,31.92
2023-03-15T13:42:00.492Z,33.64
2023-03-15T13:44:26.879Z,34.26
2023-03-15T13:46:53.324Z,37.08
2023-03-15T13:49:19.766Z,37.10
2023-03-15T13:51:46.196Z,34.83
2023-03-15T13:54:12.584Z,33.16
2023-03-15T13:56:49.324Z,32.66
2023-03-15T13:59:16.316Z,31.85
2023-03-15T14:01:42.825Z,31.07
2023-03-15T14:04:09.347Z,32.22
2023-03-15T14:06:35.753Z,33.91
2023-03-15T14:09:02.149Z,35.23
2023-03-15T14:11:28.520Z,37.19
2023-03-15T14:13:54.953Z,29.15
2023-03-15T14:16:21.358Z,38.58
2023-03-15T14:18:47.779Z,41.85
2023-03-15T14:21:14.319Z,38.96
2023-03-15T14:23:42.814Z,46.95
2023-03-15T14:26:10.437Z,48.75
2023-03-15T14:28:37.997Z,48.35
2023-03-15T14:31:04.488Z,47.62
2023-03-15T14:33:31.159Z,48.54
2023-03-15T14:35:58.781Z,52.74
2023-03-15T14:38:25.351Z,49.26
2023-03-15T14:40:51.807Z,49.78
2023-03-15T14:43:18.679Z,51.62
2023-03-15T14:45:45.115Z,48.51
2023-03-15T14:48:11.944Z,52.20
2023-03-15T14:50:38.585Z,51.47
2023-03-15T14:53:05.102Z,52.40
2023-03-15T14:55:31.504Z,49.10
2023-03-15T14:57:57.940Z,48.76
2023-03-15T15:00:24.332Z,52.28
2023-03-15T15:02:51.541Z,51.15
2023-03-15T15:05:19.249Z,49.72
2023-03-15T15:07:46.815Z,52.25
2023-03-15T15:10:13.443Z,48.58
2023-03-15T15:12:39.847Z,49.20
2023-03-15T15:15:06.336Z,51.07
2023-03-15T15:17:33.231Z,48.39
2023-03-15T15:20:00.863Z,48.50
2023-03-15T15:22:27.322Z,50.07
2023-03-15T15:24:53.747Z,50.87
2023-03-15T15:27:20.157Z,42.09
2023-03-15T15:29:46.574Z,45.17
2023-03-15T15:32:12.960Z,42.89
2023-03-15T15:34:40.425Z,42.76
2023-03-15T15:37:06.847Z,45.45
2023-03-15T15:39:33.239Z,44.55
2023-03-15T15:41:59.629Z,44.39
2023-03-15T15:44:26.051Z,44.14
2023-03-15T15:46:52.469Z,45.99
2023-03-15T15:49:18.889Z,44.75
2023-03-15T15:51:45.288Z,44.62
2023-03-15T15:54:11.683Z,41.94
2023-03-15T15:56:38.173Z,44.49
2023-03-15T15:59:04.632Z,48.52
2023-03-15T16:01:31.150Z,47.14
2023-03-15T16:03:57.641Z,43.58
2023-03-15T16:06:24.030Z,45.77
2023-03-15T16:08:51.655Z,46.39
2023-03-15T16:11:18.237Z,44.87
2023-03-15T16:13:44.647Z,43.93
2023-03-15T16:16:11.065Z,46.32
2023-03-15T16:18:37.476Z,47.98
2023-03-15T16:21:03.894Z,44.75
2023-03-15T16:23:30.320Z,49.00
2023-03-15T16:25:56.750Z,49.25
2023-03-15T16:28:23.166Z,48.90
2023-03-15T16:30:49.729Z,47.46
2023-03-15T16:33:16.266Z,49.16
2023-03-15T16:35:43.163Z,43.49
2023-03-15T16:38:09.615Z,44.18
2023-03-15T16:40:36.226Z,45.67
2023-03-15T16:43:02.640Z,43.45
2023-03-15T16:45:29.047Z,46.80
2023-03-15T16:47:55.522Z,42.82
2023-03-15T16:50:22.673Z,43.54
2023-03-15T16:52:49.115Z,45.63
2023-03-15T16:55:15.866Z,48.26
2023-03-15T16:57:43.453Z,47.36
2023-03-15T17:00:10.042Z,46.13
2023-03-15T17:02:36.455Z,46.85
2023-03-15T17:05:02.852Z,46.96
2023-03-15T17:07:29.279Z,45.89
2023-03-15T17:09:56.372Z,47.03
2023-03-15T17:12:23.985Z,47.49
2023-03-15T17:14:50.571Z,47.78
2023-03-15T17:17:17.148Z,48.53
2023-03-15T17:19:45.742Z,49.10
2023-03-15T17:22:12.340Z,50.95
2023-03-15T17:24:38.778Z,51.32
2023-03-15T17:27:05.520Z,50.39
2023-03-15T17:29:31.930Z,51.66
2023-03-15T17:31:58.433Z,52.01
2023-03-15T17:34:25.275Z,53.83
2023-03-15T17:36:51.870Z,54.92
2023-03-15T17:39:18.467Z,55.71
2023-03-15T17:41:45.045Z,56.38
2023-03-15T17:44:11.730Z,56.33
2023-03-15T17:46:39.263Z,56.03
2023-03-15T17:49:06.820Z,56.42
2023-03-15T17:51:33.442Z,56.15
2023-03-15T17:54:01.004Z,56.63
2023-03-15T17:56:27.577Z,56.76
2023-03-15T17:58:54.221Z,56.87
2023-03-15T18:01:20.808Z,56.51
2023-03-15T18:03:48.440Z,54.41
2023-03-15T18:06:14.891Z,55.33
2023-03-15T18:08:41.322Z,55.59
2023-03-15T18:11:07.811Z,54.27
2023-03-15T18:13:34.870Z,55.17
2023-03-15T18:16:01.578Z,57.06
2023-03-15T18:18:28.017Z,57.87
2023-03-15T18:20:54.482Z,57.21
2023-03-15T18:23:20.923Z,57.00
2023-03-15T18:25:47.363Z,58.13
2023-03-15T18:28:13.770Z,58.31
2023-03-15T18:30:41.044Z,57.25
2023-03-15T18:33:07.545Z,55.75
2023-03-15T18:35:34.078Z,55.08
2023-03-15T18:38:00.492Z,55.30
2023-03-15T18:40:26.933Z,56.28
2023-03-15T18:42:53.376Z,54.74
2023-03-15T18:45:19.809Z,55.38
2023-03-15T18:47:46.251Z,54.02
2023-03-15T18:50:12.722Z,55.12
2023-03-15T18:52:39.210Z,54.52
2023-03-15T18:55:05.655Z,54.60
2023-03-15T18:57:32.053Z,54.39
2023-03-15T18:59:59.229Z,55.16
2023-03-15T19:02:25.679Z,55.22
2023-03-15T19:04:52.101Z,55.92
2023-03-15T19:07:19.086Z,55.79
2023-03-15T19:09:45.486Z,56.68
2023-03-15T19:12:11.879Z,57.68
2023-03-15T19:14:38.337Z,57.91
2023-03-15T19:17:04.834Z,57.49
2023-03-15T19:19:31.395Z,58.06
2023-03-15T19:21:57.819Z,58.12
2023-03-15T19:24:24.240Z,57.23
2023-03-15T19:26:50.648Z,56.23
2023-03-15T19:29:17.067Z,56.53
2023-03-15T19:31:43.470Z,56.41
2023-03-15T19:34:09.876Z,57.64
2023-03-15T19:36:36.278Z,58.44
2023-03-15T19:39:02.691Z,58.82
2023-03-15T19:41:29.134Z,60.31
2023-03-15T19:43:55.525Z,61.03
2023-03-15T19:46:21.984Z,61.21
2023-03-15T19:48:48.404Z,61.05
2023-03-15T19:51:14.811Z,60.06
2023-03-15T19:53:41.236Z,60.13
2023-03-15T19:56:07.643Z,59.96
2023-03-15T19:58:34.029Z,60.79
2023-03-15T20:01:00.440Z,61.47
2023-03-15T20:03:26.881Z,61.40
2023-03-15T20:05:53.310Z,62.09
2023-03-15T20:08:19.751Z,62.49
2023-03-15T20:10:46.264Z,63.48
2023-03-15T20:13:12.683Z,63.57
2023-03-15T20:15:39.160Z,63.91
2023-03-15T20:18:05.633Z,63.58
2023-03-15T20:20:32.227Z,63.67
2023-03-15T20:22:58.666Z,63.86
2023-03-15T20:25:25.109Z,64.17
2023-03-15T20:27:51.599Z,64.38
2023-03-15T20:30:18.118Z,64.49
2023-03-15T20:32:44.667Z,64.71
2023-03-15T20:35:11.129Z,65.57
2023-03-15T20:37:37.598Z,65.45
2023-03-15T20:40:04.085Z,65.32
2023-03-15T20:42:30.560Z,64.63
2023-03-15T20:44:58.611Z,64.51
2023-03-15T20:47:25.071Z,64.18
2023-03-15T20:49:51.497Z,64.23
2023-03-15T20:52:17.894Z,64.04
2023-03-15T20:54:44.340Z,63.94
2023-03-15T20:57:10.741Z,64.22
2023-03-15T20:59:37.368Z,63.23
2023-03-15T21:02:03.870Z,63.50
2023-03-15T21:04:31.349Z,64.04
2023-03-15T21:06:57.941Z,64.24
2023-03-15T21:09:24.360Z,64.74
2023-03-15T21:11:50.769Z,64.70
2023-03-15T21:14:17.713Z,64.25
2023-03-15T21:16:44.365Z,64.83
2023-03-15T21:19:11.892Z,64.18
2023-03-15T21:21:38.478Z,63.88
2023-03-15T21:24:07.083Z,64.64
2023-03-15T21:26:33.931Z,63.47
2023-03-15T21:29:00.394Z,64.49
2023-03-15T21:31:27.873Z,64.55
2023-03-15T21:33:55.431Z,64.93
2023-03-15T21:36:21.999Z,64.60
2023-03-15T21:38:50.616Z,64.80
2023-03-15T21:41:19.204Z,64.97
2023-03-15T21:43:45.795Z,65.03
2023-03-15T21:46:14.482Z,65.47
2023-03-15T21:48:42.033Z,65.70
2023-03-15T21:51:08.461Z,65.07
2023-03-15T21:53:34.861Z,64.19
2023-03-15T21:56:01.270Z,64.34
2023-03-15T21:58:27.712Z,63.52
2023-03-15T22:00:54.187Z,63.39
2023-03-15T22:03:20.638Z,62.79
2023-03-15T22:05:47.118Z,61.91
2023-03-15T22:08:13.656Z,60.75
2023-03-15T22:10:40.168Z,61.15
2023-03-15T22:13:06.662Z,60.54
2023-03-15T22:15:33.509Z,59.29
2023-03-15T22:18:00.136Z,59.25
2023-03-15T22:20:27.736Z,58.33
2023-03-15T22:22:55.270Z,59.13
2023-03-15T22:25:23.868Z,57.43
2023-03-15T22:27:50.469Z,58.75
2023-03-15T22:30:19.050Z,58.42
2023-03-15T22:32:46.741Z,58.70
2023-03-15T22:35:14.241Z,59.40
2023-03-15T22:37:42.864Z,59.31
2023-03-15T22:40:09.303Z,60.90
2023-03-15T22:42:37.069Z,62.01
2023-03-15T22:45:04.666Z,60.80
2023-03-15T22:47:31.253Z,61.30
2023-03-15T22:49:57.713Z,61.51
2023-03-15T22:52:24.126Z,62.02
2023-03-15T22:54:50.496Z,62.13
2023-03-15T22:57:16.895Z,61.38
2023-03-15T22:59:43.263Z,61.35
2023-03-15T23:02:09.655Z,60.40
2023-03-15T23:04:36.414Z,60.04
2023-03-15T23:07:03.960Z,60.77
2023-03-15T23:09:31.608Z,61.42
2023-03-15T23:11:58.073Z,61.18
2023-03-15T23:14:25.784Z,59.88
2023-03-15T23:16:52.375Z,59.43
2023-03-15T23:19:20.965Z,60.40
2023-03-15T23:21:47.553Z,59.24
2023-03-15T23:24:14.151Z,59.65
2023-03-15T23:26:40.569Z,58.81
2023-03-15T23:29:07.074Z,59.43
2023-03-15T23:31:33.532Z,60.16
2023-03-15T23:34:00.005Z,59.57
2023-03-15T23:36:26.461Z,59.86
2023-03-15T23:38:52.855Z,59.98
2023-03-15T23:41:19.266Z,60.05
2023-03-15T23:43:45.737Z,61.51
2023-03-15T23:46:12.213Z,61.78
2023-03-15T23:48:39.097Z,61.06
2023-03-15T23:51:05.501Z,59.80
2023-03-15T23:53:31.917Z,59.88
2023-03-15T23:55:58.848Z,58.56
2023-03-15T23:58:25.403Z,58.11
